Time;durP1;ratioP1;P1;durP2;ratioP2;P2;SDS_P1;SDS_P2;PMS_P1;PMS_P2;Temp;Humidity;BMP_temperature;BMP_pressure;BME280_temperature;BME280_humidity;BME280_pressure;Samples;Min_cycle;Max_cycle;Signal;HPM_P1;HPM_P2
2022/12/06 00:01:25;;;;;;;;;;;;;;;;;;4951235;29;19948;-86
2022/12/06 00:03:53;;;;;;;;;;;;;;;;;;4951124;29;19929;-87
2022/12/06 00:06:19;;;;;;;;;;;;;;;;;;4933720;29;19954;-86
2022/12/06 00:08:46;;;;;;;;;;;;;;;;;;4951322;29;20421;-86
2022/12/06 00:11:14;;;;;;;;;;;;;;;;;;4933436;29;19922;-86
2022/12/06 00:13:40;;;;;;;;;;;;;;;;;;4950894;29;19922;-86
2022/12/06 00:16:06;;;;;;;;;;;;;;;;;;4933277;29;19990;-86
2022/12/06 00:18:32;;;;;;;;;;;;;;;;;;4950769;29;20021;-86
2022/12/06 00:21:07;;;;;;;;;;;;;;;;;;4951160;29;20012;-85
2022/12/06 00:23:40;;;;;;;;;;;;;;;;;;4933962;29;20033;-86
2022/12/06 00:26:06;;;;;;;;;;;;;;;;;;4951273;29;19922;-85
2022/12/06 00:28:32;;;;;;;;;;;;;;;;;;4952122;29;20052;-87
2022/12/06 00:31:01;;;;;;;;;;;;;;;;;;4949608;29;20024;-86
2022/12/06 00:33:33;;;;;;;;;;;;;;;;;;4934525;29;20434;-87
2022/12/06 00:36:19;;;;;;;;;;;;;;;;;;4917918;29;19923;-86
2022/12/06 00:38:44;;;;;;;;;;;;;;;;;;4923153;29;19923;-86
2022/12/06 00:41:14;;;;;;;;;;;;;;;;;;4933160;29;19922;-86
2022/12/06 00:43:40;;;;;;;;;;;;;;;;;;4923998;29;19998;-86
2022/12/06 00:46:06;;;;;;;;;;;;;;;;;;4937074;29;19922;-83
2022/12/06 00:48:32;;;;;;;;;;;;;;;;;;4914317;29;19958;-86
2022/12/06 00:50:57;;;;;;;;;;;;;;;;;;4912978;29;20418;-86
2022/12/06 00:53:23;;;;;;;;;;;;;;;;;;4913287;29;19923;-84
2022/12/06 00:55:49;;;;;;;;;;;;;;;;;;4912639;29;19931;-86
2022/12/06 00:58:14;;;;;;;;;;;;;;;;;;4912774;29;19923;-86
2022/12/06 01:00:40;;;;;;;;;;;;;;;;;;4895658;29;19927;-86
2022/12/06 01:03:06;;;;;;;;;;;;;;;;;;4912532;29;19923;-85
2022/12/06 01:05:31;;;;;;;;;;;;;;;;;;4895475;29;19930;-87
2022/12/06 01:07:57;;;;;;;;;;;;;;;;;;4912557;29;19931;-86
2022/12/06 01:10:22;;;;;;;;;;;;;;;;;;4912741;29;19919;-86
2022/12/06 01:12:48;;;;;;;;;;;;;;;;;;4912494;29;20414;-85
2022/12/06 01:15:13;;;;;;;;;;;;;;;;;;4911999;29;19919;-87
2022/12/06 01:17:38;;;;;;;;;;;;;;;;;;4895070;29;19923;-86
2022/12/06 01:20:04;;;;;;;;;;;;;;;;;;4912271;29;19994;-85
2022/12/06 01:22:30;;;;;;;;;;;;;;;;;;4912569;29;20383;-86
2022/12/06 01:24:55;;;;;;;;;;;;;;;;;;4898132;29;19923;-87
2022/12/06 01:27:21;;;;;;;;;;;;;;;;;;4916072;29;20033;-86
2022/12/06 01:29:46;;;;;;;;;;;;;;;;;;4915881;29;19923;-86
2022/12/06 01:32:11;;;;;;;;;;;;;;;;;;4929757;29;19923;-87
2022/12/06 01:34:37;;;;;;;;;;;;;;;;;;4917395;29;20378;-87
2022/12/06 01:37:03;;;;;;;;;;;;;;;;;;4917029;29;19929;-87
2022/12/06 01:39:29;;;;;;;;;;;;;;;;;;4917484;29;20066;-87
2022/12/06 01:41:54;;;;;;;;;;;;;;;;;;4934832;29;19922;-86
2022/12/06 01:44:56;;;;;;;;;;;;;;;;;;4934915;29;19927;-86
2022/12/06 01:47:29;;;;;;;;;;;;;;;;;;4875355;29;19920;-87
2022/12/06 01:50:00;;;;;;;;;;;;;;;;;;4875235;29;19923;-86
2022/12/06 01:52:29;;;;;;;;;;;;;;;;;;4875443;29;20079;-86
2022/12/06 01:54:55;;;;;;;;;;;;;;;;;;4874872;29;19924;-86
2022/12/06 01:57:21;;;;;;;;;;;;;;;;;;4884691;29;19927;-86
2022/12/06 01:59:46;;;;;;;;;;;;;;;;;;4878156;29;19927;-87
2022/12/06 02:02:12;;;;;;;;;;;;;;;;;;4893639;29;20383;-87
2022/12/06 02:04:38;;;;;;;;;;;;;;;;;;4893866;29;19923;-86
2022/12/06 02:07:04;;;;;;;;;;;;;;;;;;4893841;29;20016;-85
2022/12/06 02:09:30;;;;;;;;;;;;;;;;;;4893625;29;20399;-86
2022/12/06 02:11:55;;;;;;;;;;;;;;;;;;4877887;29;19919;-86
2022/12/06 02:14:23;;;;;;;;;;;;;;;;;;4893437;29;19927;-86
2022/12/06 02:17:00;;;;;;;;;;;;;;;;;;4894007;29;20439;-86
2022/12/06 02:19:25;;;;;;;;;;;;;;;;;;4893338;29;19931;-87
2022/12/06 02:21:50;;;;;;;;;;;;;;;;;;4919345;29;19922;-86
2022/12/06 02:24:35;;;;;;;;;;;;;;;;;;4953030;29;19946;-86
2022/12/06 02:27:00;;;;;;;;;;;;;;;;;;4952941;29;19946;-86
2022/12/06 02:29:35;;;;;;;;;;;;;;;;;;4932666;29;19923;-86
2022/12/06 02:32:08;;;;;;;;;;;;;;;;;;4919906;29;20383;-86
2022/12/06 02:34:43;;;;;;;;;;;;;;;;;;4926490;29;19922;-86
2022/12/06 02:37:11;;;;;;;;;;;;;;;;;;4933528;29;20371;-86
2022/12/06 02:39:41;;;;;;;;;;;;;;;;;;4933266;29;20576;-86
2022/12/06 02:42:07;;;;;;;;;;;;;;;;;;4916477;29;19923;-86
2022/12/06 02:44:35;;;;;;;;;;;;;;;;;;4933356;29;19923;-85
2022/12/06 02:47:02;;;;;;;;;;;;;;;;;;4933678;29;19923;-87
2022/12/06 02:49:30;;;;;;;;;;;;;;;;;;4933429;29;20477;-87
2022/12/06 02:51:56;;;;;;;;;;;;;;;;;;4933519;29;19930;-86
2022/12/06 02:54:22;;;;;;;;;;;;;;;;;;4932982;29;20283;-87
2022/12/06 02:56:48;;;;;;;;;;;;;;;;;;4933032;29;19997;-86
2022/12/06 02:59:13;;;;;;;;;;;;;;;;;;4915642;29;20386;-86
2022/12/06 03:01:41;;;;;;;;;;;;;;;;;;4933089;29;20338;-86
2022/12/06 03:04:30;;;;;;;;;;;;;;;;;;4933532;29;19929;-85
2022/12/06 03:07:14;;;;;;;;;;;;;;;;;;4916019;29;19923;-87
2022/12/06 03:09:42;;;;;;;;;;;;;;;;;;4915874;29;20279;-87
2022/12/06 03:12:11;;;;;;;;;;;;;;;;;;4915881;29;19927;-86
2022/12/06 03:14:42;;;;;;;;;;;;;;;;;;4932725;29;20082;-86
2022/12/06 03:17:19;;;;;;;;;;;;;;;;;;4915643;29;19926;-86
2022/12/06 03:19:46;;;;;;;;;;;;;;;;;;4932557;29;20010;-85
2022/12/06 03:22:19;;;;;;;;;;;;;;;;;;4915859;29;20342;-85
2022/12/06 03:24:45;;;;;;;;;;;;;;;;;;4915631;29;19926;-87
2022/12/06 03:27:12;;;;;;;;;;;;;;;;;;4932898;29;19930;-86
2022/12/06 03:29:41;;;;;;;;;;;;;;;;;;4915296;29;19969;-86
2022/12/06 03:32:07;;;;;;;;;;;;;;;;;;4915460;29;19922;-86
2022/12/06 03:34:35;;;;;;;;;;;;;;;;;;4932293;29;20051;-86
2022/12/06 03:37:02;;;;;;;;;;;;;;;;;;4932391;29;20013;-86
2022/12/06 03:39:33;;;;;;;;;;;;;;;;;;4940299;29;19933;-86
2022/12/06 03:41:59;;;;;;;;;;;;;;;;;;4951613;29;19918;-87
2022/12/06 03:44:25;;;;;;;;;;;;;;;;;;4951453;29;20017;-87
2022/12/06 03:47:00;;;;;;;;;;;;;;;;;;4933632;29;20409;-86
2022/12/06 03:49:30;;;;;;;;;;;;;;;;;;4951463;29;20026;-86
2022/12/06 03:51:55;;;;;;;;;;;;;;;;;;4951469;29;20016;-87
2022/12/06 03:54:21;;;;;;;;;;;;;;;;;;4933760;29;20021;-86
2022/12/06 03:56:46;;;;;;;;;;;;;;;;;;4951188;29;19922;-86
2022/12/06 03:59:11;;;;;;;;;;;;;;;;;;4951187;29;20298;-86
2022/12/06 04:01:37;;;;;;;;;;;;;;;;;;4951417;29;20370;-86
2022/12/06 04:04:03;;;;;;;;;;;;;;;;;;4951301;29;20694;-88
2022/12/06 04:06:28;;;;;;;;;;;;;;;;;;4933783;29;20700;-86
2022/12/06 04:09:51;;;;;;;;;;;;;;;;;;4951418;29;19930;-86
2022/12/06 04:11:39;;;;;;;;;;;;;;;;;;4950998;29;19941;-85
2022/12/06 04:14:05;;;;;;;;;;;;;;;;;;4950839;29;20386;-84
2022/12/06 04:19:14;;;;;;;;;;;;;;;;;;4951261;29;20436;-84
2022/12/06 04:24:23;;;;;;;;;;;;;;;;;;4951229;29;20002;-87
2022/12/06 04:26:49;;;;;;;;;;;;;;;;;;4950920;29;20333;-85
2022/12/06 04:40:10;;;;;;;;;;;;;;;;;;4931765;29;19989;-86
2022/12/06 04:45:20;;;;;;;;;;;;;;;;;;4931630;29;19966;-85
2022/12/06 04:47:45;;;;;;;;;;;;;;;;;;4931851;29;19967;-84
2022/12/06 04:50:11;;;;;;;;;;;;;;;;;;4931682;29;20013;-85
2022/12/06 04:52:36;;;;;;;;;;;;;;;;;;4931562;29;20022;-86
2022/12/06 04:55:03;;;;;;;;;;;;;;;;;;4900987;29;20331;-85
2022/12/06 04:57:28;;;;;;;;;;;;;;;;;;4935177;29;19918;-86
2022/12/06 04:59:54;;;;;;;;;;;;;;;;;;4938604;29;20622;-86
2022/12/06 05:02:19;;;;;;;;;;;;;;;;;;4936539;29;19934;-86
2022/12/06 05:04:45;;;;;;;;;;;;;;;;;;4936389;29;20005;-86
2022/12/06 05:07:10;;;;;;;;;;;;;;;;;;4939299;29;19926;-86
2022/12/06 05:09:36;;;;;;;;;;;;;;;;;;4925171;29;19969;-86
2022/12/06 05:12:01;;;;;;;;;;;;;;;;;;4941917;29;19927;-85
2022/12/06 05:14:27;;;;;;;;;;;;;;;;;;4941398;29;19927;-85
2022/12/06 05:16:52;;;;;;;;;;;;;;;;;;4937914;29;20045;-86
2022/12/06 05:19:18;;;;;;;;;;;;;;;;;;4953006;29;20268;-85
2022/12/06 05:21:43;;;;;;;;;;;;;;;;;;4954306;29;20376;-85
2022/12/06 05:24:09;;;;;;;;;;;;;;;;;;4918310;29;19930;-85
2022/12/06 05:26:34;;;;;;;;;;;;;;;;;;4917584;29;19927;-85
2022/12/06 05:29:00;;;;;;;;;;;;;;;;;;4935381;29;20021;-84
2022/12/06 05:31:25;;;;;;;;;;;;;;;;;;4917795;29;19922;-86
2022/12/06 05:33:51;;;;;;;;;;;;;;;;;;4934770;29;20681;-84
2022/12/06 05:36:18;;;;;;;;;;;;;;;;;;4934339;29;19954;-85
2022/12/06 05:38:44;;;;;;;;;;;;;;;;;;4933756;29;19923;-85
2022/12/06 05:41:09;;;;;;;;;;;;;;;;;;4934606;29;19929;-86
2022/12/06 05:43:34;;;;;;;;;;;;;;;;;;4917440;29;20477;-86
2022/12/06 05:46:00;;;;;;;;;;;;;;;;;;4916034;29;19926;-86
2022/12/06 05:48:25;;;;;;;;;;;;;;;;;;4916624;29;20299;-87
2022/12/06 05:50:52;;;;;;;;;;;;;;;;;;4916032;29;19930;-85
2022/12/06 05:53:18;;;;;;;;;;;;;;;;;;4934384;29;20365;-85
2022/12/06 05:55:43;;;;;;;;;;;;;;;;;;4934078;29;19957;-86
2022/12/06 05:58:09;;;;;;;;;;;;;;;;;;4916808;29;19927;-85
2022/12/06 06:00:35;;;;;;;;;;;;;;;;;;4934346;29;19931;-85
2022/12/06 06:03:01;;;;;;;;;;;;;;;;;;4934436;29;20323;-86
2022/12/06 06:05:26;;;;;;;;;;;;;;;;;;4934282;29;19930;-86
2022/12/06 06:07:52;;;;;;;;;;;;;;;;;;4934100;29;19926;-85
2022/12/06 06:10:17;;;;;;;;;;;;;;;;;;4933554;29;19962;-86
2022/12/06 06:12:43;;;;;;;;;;;;;;;;;;4916574;29;19969;-85
2022/12/06 06:15:09;;;;;;;;;;;;;;;;;;4934383;29;19978;-87
2022/12/06 06:17:35;;;;;;;;;;;;;;;;;;4933265;29;19966;-85
2022/12/06 06:20:04;;;;;;;;;;;;;;;;;;4934006;29;20339;-85
2022/12/06 06:22:30;;;;;;;;;;;;;;;;;;4933930;29;19929;-83
2022/12/06 06:24:56;;;;;;;;;;;;;;;;;;4934098;29;19923;-85
2022/12/06 06:27:22;;;;;;;;;;;;;;;;;;4933773;29;19973;-86
2022/12/06 06:29:47;;;;;;;;;;;;;;;;;;4916582;29;19926;-86
2022/12/06 06:32:12;;;;;;;;;;;;;;;;;;4933922;29;19923;-86
2022/12/06 06:34:38;;;;;;;;;;;;;;;;;;4933450;29;19926;-85
2022/12/06 06:37:03;;;;;;;;;;;;;;;;;;4940733;29;19976;-86
2022/12/06 06:39:28;;;;;;;;;;;;;;;;;;4952622;29;19919;-86
2022/12/06 06:41:54;;;;;;;;;;;;;;;;;;4952598;29;19919;-85
2022/12/06 06:44:19;;;;;;;;;;;;;;;;;;4952971;29;19929;-86
2022/12/06 06:46:45;;;;;;;;;;;;;;;;;;4952310;29;19941;-86
2022/12/06 06:49:10;;;;;;;;;;;;;;;;;;4952602;29;20359;-87
2022/12/06 06:51:36;;;;;;;;;;;;;;;;;;4952530;29;20097;-85
2022/12/06 06:54:01;;;;;;;;;;;;;;;;;;4952436;29;19918;-87
2022/12/06 06:56:27;;;;;;;;;;;;;;;;;;4934816;29;20386;-86
2022/12/06 06:58:52;;;;;;;;;;;;;;;;;;4934383;29;19926;-86
2022/12/06 07:01:19;;;;;;;;;;;;;;;;;;4952562;29;19933;-84
2022/12/06 07:03:44;;;;;;;;;;;;;;;;;;4951976;29;19973;-86
2022/12/06 07:06:10;;;;;;;;;;;;;;;;;;4952527;29;19918;-87
2022/12/06 07:08:36;;;;;;;;;;;;;;;;;;4952056;29;20057;-86
2022/12/06 07:11:01;;;;;;;;;;;;;;;;;;4952274;29;19928;-86
2022/12/06 07:13:27;;;;;;;;;;;;;;;;;;4952648;29;19926;-86
2022/12/06 07:15:52;;;;;;;;;;;;;;;;;;4934721;29;19929;-85
2022/12/06 07:18:18;;;;;;;;;;;;;;;;;;4951844;29;19924;-87
2022/12/06 07:20:45;;;;;;;;;;;;;;;;;;4997312;23;19931;-85
2022/12/06 07:23:10;;;;;;;;;;;;;;;;;;4896684;29;19930;-86
2022/12/06 07:25:35;;;;;;;;;;;;;;;;;;4913698;29;19926;-86
2022/12/06 07:28:01;;;;;;;;;;;;;;;;;;4913602;29;19923;-85
2022/12/06 07:30:27;;;;;;;;;;;;;;;;;;4913997;29;19923;-87
2022/12/06 07:32:53;;;;;;;;;;;;;;;;;;4932608;29;19946;-86
2022/12/06 07:35:18;;;;;;;;;;;;;;;;;;4915334;29;20033;-86
2022/12/06 07:37:44;;;;;;;;;;;;;;;;;;4932053;29;20010;-86
2022/12/06 07:40:10;;;;;;;;;;;;;;;;;;4932385;29;19978;-86
2022/12/06 07:45:19;;;;;;;;;;;;;;;;;;4933078;29;19933;-86
2022/12/06 07:47:45;;;;;;;;;;;;;;;;;;4932129;29;19923;-86
2022/12/06 07:50:12;;;;;;;;;;;;;;;;;;4915230;29;20442;-86
2022/12/06 07:52:38;;;;;;;;;;;;;;;;;;4932021;29;19926;-86
2022/12/06 07:55:04;;;;;;;;;;;;;;;;;;4914854;29;20295;-87
2022/12/06 07:57:29;;;;;;;;;;;;;;;;;;4914071;29;19926;-85
2022/12/06 07:59:55;;;;;;;;;;;;;;;;;;4931524;29;19918;-86
2022/12/06 08:02:22;;;;;;;;;;;;;;;;;;4914819;29;19927;-86
2022/12/06 08:04:47;;;;;;;;;;;;;;;;;;4914723;29;19929;-86
2022/12/06 08:07:13;;;;;;;;;;;;;;;;;;4932063;29;19918;-87
2022/12/06 08:09:39;;;;;;;;;;;;;;;;;;4914601;29;19926;-85
2022/12/06 08:12:05;;;;;;;;;;;;;;;;;;4932256;29;19974;-86
2022/12/06 08:14:30;;;;;;;;;;;;;;;;;;4931966;29;19923;-86
2022/12/06 08:16:56;;;;;;;;;;;;;;;;;;4931778;29;19923;-86
2022/12/06 08:19:21;;;;;;;;;;;;;;;;;;4931782;29;19923;-86
2022/12/06 08:21:47;;;;;;;;;;;;;;;;;;4931906;29;19934;-85
2022/12/06 08:24:12;;;;;;;;;;;;;;;;;;4914876;29;20298;-86
2022/12/06 08:26:38;;;;;;;;;;;;;;;;;;4931865;29;19923;-86
2022/12/06 08:29:03;;;;;;;;;;;;;;;;;;4915468;29;19970;-85
2022/12/06 08:31:38;;;;;;;;;;;;;;;;;;4924875;29;19927;-85
2022/12/06 08:34:03;;;;;;;;;;;;;;;;;;4912837;29;19923;-86
2022/12/06 08:36:29;;;;;;;;;;;;;;;;;;4912717;29;20343;-85
2022/12/06 08:38:55;;;;;;;;;;;;;;;;;;4912558;29;19946;-86
2022/12/06 08:44:05;;;;;;;;;;;;;;;;;;4913931;29;19930;-86
2022/12/06 08:46:31;;;;;;;;;;;;;;;;;;4916834;29;19923;-85
2022/12/06 08:48:56;;;;;;;;;;;;;;;;;;4913454;29;19923;-85
2022/12/06 08:51:22;;;;;;;;;;;;;;;;;;4895582;29;19930;-84
2022/12/06 08:53:47;;;;;;;;;;;;;;;;;;4914245;29;20394;-84
2022/12/06 08:56:13;;;;;;;;;;;;;;;;;;4914005;29;19923;-86
2022/12/06 08:58:38;;;;;;;;;;;;;;;;;;4912949;29;19928;-85
2022/12/06 09:01:11;;;;;;;;;;;;;;;;;;4896263;29;20340;-84
2022/12/06 09:03:37;;;;;;;;;;;;;;;;;;4913449;29;19923;-85
2022/12/06 09:06:02;;;;;;;;;;;;;;;;;;4913255;29;19971;-86
2022/12/06 09:08:28;;;;;;;;;;;;;;;;;;4895778;29;20674;-87
2022/12/06 09:10:53;;;;;;;;;;;;;;;;;;4913875;29;20355;-86
2022/12/06 09:13:19;;;;;;;;;;;;;;;;;;4918943;29;20260;-86
2022/12/06 09:15:44;;;;;;;;;;;;;;;;;;4900928;29;19919;-86
2022/12/06 09:18:09;;;;;;;;;;;;;;;;;;4917742;29;20009;-86
2022/12/06 09:20:38;;;;;;;;;;;;;;;;;;4915370;29;20344;-87
2022/12/06 09:23:03;;;;;;;;;;;;;;;;;;4915935;29;19925;-88
2022/12/06 09:25:28;;;;;;;;;;;;;;;;;;4925549;29;20116;-87
2022/12/06 09:27:54;;;;;;;;;;;;;;;;;;4934026;29;19979;-87
2022/12/06 09:30:19;;;;;;;;;;;;;;;;;;4926285;29;19930;-88
2022/12/06 09:32:47;;;;;;;;;;;;;;;;;;4918838;29;19923;-86
2022/12/06 09:35:14;;;;;;;;;;;;;;;;;;4899752;29;19923;-87
2022/12/06 09:37:39;;;;;;;;;;;;;;;;;;4918047;29;20005;-87
2022/12/06 09:40:10;;;;;;;;;;;;;;;;;;4909613;29;20443;-87
2022/12/06 09:42:54;;;;;;;;;;;;;;;;;;4914685;29;20398;-86
2022/12/06 09:45:38;;;;;;;;;;;;;;;;;;4916643;29;19974;-85
2022/12/06 09:48:05;;;;;;;;;;;;;;;;;;4935410;29;20303;-85
2022/12/06 09:50:49;;;;;;;;;;;;;;;;;;4934900;29;19930;-87
2022/12/06 09:53:17;;;;;;;;;;;;;;;;;;4934400;29;19927;-86
2022/12/06 09:55:51;;;;;;;;;;;;;;;;;;4916844;29;19919;-87
2022/12/06 09:58:16;;;;;;;;;;;;;;;;;;4898056;29;20335;-87
2022/12/06 10:00:46;;;;;;;;;;;;;;;;;;4915324;29;20022;-86
2022/12/06 10:03:14;;;;;;;;;;;;;;;;;;4915740;29;19967;-86
2022/12/06 10:05:46;;;;;;;;;;;;;;;;;;4915480;29;20401;-87
2022/12/06 10:08:26;;;;;;;;;;;;;;;;;;4932647;29;19929;-87
2022/12/06 10:11:04;;;;;;;;;;;;;;;;;;4934235;29;20363;-86
2022/12/06 10:13:48;;;;;;;;;;;;;;;;;;4934915;29;20049;-86
2022/12/06 10:16:19;;;;;;;;;;;;;;;;;;4934419;29;20021;-86
2022/12/06 10:18:45;;;;;;;;;;;;;;;;;;4934129;29;19978;-88
2022/12/06 10:21:10;;;;;;;;;;;;;;;;;;4933332;29;19926;-88
2022/12/06 10:23:54;;;;;;;;;;;;;;;;;;4916709;29;20478;-86
2022/12/06 10:26:27;;;;;;;;;;;;;;;;;;4934269;29;19923;-87
2022/12/06 10:29:07;;;;;;;;;;;;;;;;;;4933935;29;19919;-87
2022/12/06 10:31:35;;;;;;;;;;;;;;;;;;4934112;29;19923;-86
2022/12/06 10:34:10;;;;;;;;;;;;;;;;;;4916692;29;19923;-86
2022/12/06 10:36:55;;;;;;;;;;;;;;;;;;4916712;29;19958;-87
2022/12/06 10:39:23;;;;;;;;;;;;;;;;;;4933195;29;20275;-87
2022/12/06 10:41:56;;;;;;;;;;;;;;;;;;4916157;29;19918;-88
2022/12/06 10:44:34;;;;;;;;;;;;;;;;;;4917734;29;19923;-86
2022/12/06 10:47:02;;;;;;;;;;;;;;;;;;4938319;29;20009;-87
2022/12/06 10:49:47;;;;;;;;;;;;;;;;;;4937446;29;19923;-88
2022/12/06 10:52:19;;;;;;;;;;;;;;;;;;4936832;29;19923;-86
2022/12/06 10:54:57;;;;;;;;;;;;;;;;;;4937948;29;19929;-87
2022/12/06 10:57:42;;;;;;;;;;;;;;;;;;4937302;29;19918;-85
2022/12/06 11:00:16;;;;;;;;;;;;;;;;;;4919730;29;19926;-86
2022/12/06 11:02:47;;;;;;;;;;;;;;;;;;4935248;29;19922;-88
2022/12/06 11:05:19;;;;;;;;;;;;;;;;;;4917233;29;19925;-86
2022/12/06 11:07:45;;;;;;;;;;;;;;;;;;4934783;29;19922;-87
2022/12/06 11:10:16;;;;;;;;;;;;;;;;;;4936635;29;19952;-86
2022/12/06 11:12:42;;;;;;;;;;;;;;;;;;4917902;29;19946;-86
2022/12/06 11:15:14;;;;;;;;;;;;;;;;;;4937487;29;20006;-87
2022/12/06 11:17:42;;;;;;;;;;;;;;;;;;4900685;29;19935;-87
2022/12/06 11:20:24;;;;;;;;;;;;;;;;;;4898744;29;19923;-86
2022/12/06 11:22:58;;;;;;;;;;;;;;;;;;4897520;29;20351;-87
2022/12/06 11:25:42;;;;;;;;;;;;;;;;;;4901186;29;19969;-87
2022/12/06 11:28:20;;;;;;;;;;;;;;;;;;4898274;29;20030;-87
2022/12/06 11:30:45;;;;;;;;;;;;;;;;;;4899298;29;20022;-87
2022/12/06 11:33:12;;;;;;;;;;;;;;;;;;4900523;29;20419;-87
2022/12/06 11:35:37;;;;;;;;;;;;;;;;;;4899526;29;20049;-86
2022/12/06 11:38:06;;;;;;;;;;;;;;;;;;4918586;29;19962;-87
2022/12/06 11:40:33;;;;;;;;;;;;;;;;;;4897736;29;19959;-86
2022/12/06 11:42:59;;;;;;;;;;;;;;;;;;4914445;29;19975;-87
2022/12/06 11:45:26;;;;;;;;;;;;;;;;;;4915155;29;19923;-85
2022/12/06 11:47:53;;;;;;;;;;;;;;;;;;4914256;29;19919;-86
2022/12/06 11:50:19;;;;;;;;;;;;;;;;;;4914869;29;19927;-86
2022/12/06 11:52:48;;;;;;;;;;;;;;;;;;4899644;29;20022;-86
2022/12/06 11:55:43;;;;;;;;;;;;;;;;;;4916938;29;20013;-87
2022/12/06 11:58:14;;;;;;;;;;;;;;;;;;4902746;29;19927;-86
2022/12/06 12:00:55;;;;;;;;;;;;;;;;;;4916181;29;19923;-86
2022/12/06 12:03:28;;;;;;;;;;;;;;;;;;4915447;29;19927;-85
2022/12/06 12:06:06;;;;;;;;;;;;;;;;;;4899230;29;19923;-86
2022/12/06 12:08:32;;;;;;;;;;;;;;;;;;4898643;29;19925;-86
2022/12/06 12:10:58;;;;;;;;;;;;;;;;;;4915603;29;20014;-86
2022/12/06 12:16:18;;;;;;;;;;;;;;;;;;4913820;29;19979;-86
2022/12/06 12:18:52;;;;;;;;;;;;;;;;;;4914207;29;19946;-84
2022/12/06 12:21:28;;;;;;;;;;;;;;;;;;4913811;29;20387;-85
2022/12/06 12:23:53;;;;;;;;;;;;;;;;;;4896570;29;19923;-86
2022/12/06 12:26:19;;;;;;;;;;;;;;;;;;4895985;29;19930;-85
2022/12/06 12:29:00;;;;;;;;;;;;;;;;;;4916593;29;19919;-85
2022/12/06 12:31:26;;;;;;;;;;;;;;;;;;4919443;29;19919;-85
2022/12/06 12:34:10;;;;;;;;;;;;;;;;;;4901582;29;19919;-87
2022/12/06 12:36:35;;;;;;;;;;;;;;;;;;4915261;29;19971;-88
2022/12/06 12:39:01;;;;;;;;;;;;;;;;;;4912049;29;19923;-86
2022/12/06 12:41:43;;;;;;;;;;;;;;;;;;4914585;29;19927;-87
2022/12/06 12:44:12;;;;;;;;;;;;;;;;;;4916530;29;19927;-87
2022/12/06 12:46:41;;;;;;;;;;;;;;;;;;4897271;29;20010;-87
2022/12/06 12:49:18;;;;;;;;;;;;;;;;;;4896842;29;19966;-88
2022/12/06 12:54:37;;;;;;;;;;;;;;;;;;4916302;29;19930;-87
2022/12/06 12:57:19;;;;;;;;;;;;;;;;;;4915144;29;20032;-90
2022/12/06 13:02:55;;;;;;;;;;;;;;;;;;4894961;29;19931;-88
2022/12/06 13:05:22;;;;;;;;;;;;;;;;;;4894549;29;19927;-88
2022/12/06 13:07:48;;;;;;;;;;;;;;;;;;4894270;29;19930;-87
2022/12/06 13:10:25;;;;;;;;;;;;;;;;;;4894393;29;20038;-86
2022/12/06 13:13:01;;;;;;;;;;;;;;;;;;4894883;29;19920;-88
2022/12/06 13:15:39;;;;;;;;;;;;;;;;;;4894147;29;19931;-87
2022/12/06 13:18:10;;;;;;;;;;;;;;;;;;4907922;29;19933;-87
2022/12/06 13:20:36;;;;;;;;;;;;;;;;;;4897417;29;19927;-86
2022/12/06 13:23:05;;;;;;;;;;;;;;;;;;4899996;29;19972;-88
2022/12/06 13:25:30;;;;;;;;;;;;;;;;;;4918213;29;19915;-86
2022/12/06 13:27:57;;;;;;;;;;;;;;;;;;4901910;29;20027;-88
2022/12/06 13:30:25;;;;;;;;;;;;;;;;;;4919272;29;19919;-86
2022/12/06 13:33:26;;;;;;;;;;;;;;;;;;4902144;29;19986;-86
2022/12/06 13:35:51;;;;;;;;;;;;;;;;;;4859464;29;19950;-86
2022/12/06 13:38:16;;;;;;;;;;;;;;;;;;4866581;29;19949;-89
2022/12/06 13:40:46;;;;;;;;;;;;;;;;;;4878269;29;19928;-86
2022/12/06 13:43:24;;;;;;;;;;;;;;;;;;4871883;29;20312;-90
2022/12/06 13:45:51;;;;;;;;;;;;;;;;;;4863255;29;19934;-90
2022/12/06 13:48:28;;;;;;;;;;;;;;;;;;4844692;29;19930;-88
2022/12/06 13:51:01;;;;;;;;;;;;;;;;;;4858067;29;19924;-87
2022/12/06 13:53:33;;;;;;;;;;;;;;;;;;4842264;29;19931;-87
2022/12/06 13:56:00;;;;;;;;;;;;;;;;;;4841204;29;19970;-88
2022/12/06 13:58:26;;;;;;;;;;;;;;;;;;4856802;29;19924;-88
2022/12/06 14:00:52;;;;;;;;;;;;;;;;;;4856432;29;20448;-88
2022/12/06 14:03:18;;;;;;;;;;;;;;;;;;4841693;29;20048;-87
2022/12/06 14:05:53;;;;;;;;;;;;;;;;;;4856975;29;19924;-88
2022/12/06 14:08:18;;;;;;;;;;;;;;;;;;4857197;29;19920;-86
2022/12/06 14:10:44;;;;;;;;;;;;;;;;;;4890181;29;20071;-88
2022/12/06 14:13:19;;;;;;;;;;;;;;;;;;4896530;29;19923;-87
2022/12/06 14:15:46;;;;;;;;;;;;;;;;;;4898333;29;19923;-86
2022/12/06 14:18:17;;;;;;;;;;;;;;;;;;4903283;29;19923;-88
2022/12/06 14:20:42;;;;;;;;;;;;;;;;;;4899508;29;20402;-88
2022/12/06 14:23:30;;;;;;;;;;;;;;;;;;4883815;29;20022;-87
2022/12/06 14:26:17;;;;;;;;;;;;;;;;;;4881843;29;20034;-87
2022/12/06 14:28:43;;;;;;;;;;;;;;;;;;4897410;29;20395;-88
2022/12/06 14:31:19;;;;;;;;;;;;;;;;;;4913333;29;19930;-88
2022/12/06 14:33:45;;;;;;;;;;;;;;;;;;4916499;29;19926;-87
2022/12/06 14:36:18;;;;;;;;;;;;;;;;;;4916650;29;19919;-86
2022/12/06 14:38:50;;;;;;;;;;;;;;;;;;4916361;29;20391;-88
2022/12/06 14:44:11;;;;;;;;;;;;;;;;;;4934106;29;19982;-86
2022/12/06 14:46:37;;;;;;;;;;;;;;;;;;4916662;29;20025;-87
2022/12/06 14:51:52;;;;;;;;;;;;;;;;;;4920202;29;19930;-89
2022/12/06 14:54:19;;;;;;;;;;;;;;;;;;4897695;29;19923;-88
2022/12/06 14:56:44;;;;;;;;;;;;;;;;;;4897235;29;19923;-89
2022/12/06 14:59:11;;;;;;;;;;;;;;;;;;4897240;29;20408;-88
2022/12/06 15:01:45;;;;;;;;;;;;;;;;;;4913924;29;19923;-89
2022/12/06 15:04:24;;;;;;;;;;;;;;;;;;4914580;29;20063;-87
2022/12/06 15:06:54;;;;;;;;;;;;;;;;;;4897479;29;19978;-86
2022/12/06 15:09:21;;;;;;;;;;;;;;;;;;4896897;29;19930;-90
2022/12/06 15:14:34;;;;;;;;;;;;;;;;;;4914492;29;20011;-88
2022/12/06 15:17:14;;;;;;;;;;;;;;;;;;4913682;29;20010;-87
2022/12/06 15:20:00;;;;;;;;;;;;;;;;;;4913506;29;19971;-87
2022/12/06 15:22:27;;;;;;;;;;;;;;;;;;4913577;29;19934;-86
2022/12/06 15:24:55;;;;;;;;;;;;;;;;;;4914055;29;20391;-88
2022/12/06 15:27:25;;;;;;;;;;;;;;;;;;4913573;29;19930;-87
2022/12/06 15:29:51;;;;;;;;;;;;;;;;;;4913608;29;19929;-88
2022/12/06 15:32:17;;;;;;;;;;;;;;;;;;4913620;29;19927;-88
2022/12/06 15:34:43;;;;;;;;;;;;;;;;;;4897004;29;19930;-88
2022/12/06 15:37:10;;;;;;;;;;;;;;;;;;4913565;29;19934;-87
2022/12/06 15:39:38;;;;;;;;;;;;;;;;;;4895650;29;20434;-87
2022/12/06 15:42:17;;;;;;;;;;;;;;;;;;4912732;29;19923;-88
2022/12/06 15:44:43;;;;;;;;;;;;;;;;;;4896255;29;20276;-87
2022/12/06 15:47:11;;;;;;;;;;;;;;;;;;4913201;29;19927;-86
2022/12/06 15:49:38;;;;;;;;;;;;;;;;;;4896698;29;19942;-87
2022/12/06 15:52:04;;;;;;;;;;;;;;;;;;4913159;29;20075;-87
2022/12/06 15:54:29;;;;;;;;;;;;;;;;;;4913387;29;20013;-88
2022/12/06 15:56:55;;;;;;;;;;;;;;;;;;4901989;29;20403;-86
2022/12/06 15:59:20;;;;;;;;;;;;;;;;;;4914890;29;20375;-87
2022/12/06 16:01:47;;;;;;;;;;;;;;;;;;4932004;29;19923;-91
2022/12/06 16:04:14;;;;;;;;;;;;;;;;;;4932152;29;19970;-86
2022/12/06 16:06:39;;;;;;;;;;;;;;;;;;4915014;29;20390;-88
2022/12/06 16:09:07;;;;;;;;;;;;;;;;;;4932011;29;19923;-88
2022/12/06 16:11:32;;;;;;;;;;;;;;;;;;4914845;29;20279;-90
2022/12/06 16:13:58;;;;;;;;;;;;;;;;;;4932143;29;19930;-87
2022/12/06 16:16:23;;;;;;;;;;;;;;;;;;4914965;29;19919;-89
2022/12/06 16:18:49;;;;;;;;;;;;;;;;;;4931884;29;19927;-86
2022/12/06 16:21:19;;;;;;;;;;;;;;;;;;4931331;29;19934;-86
2022/12/06 16:23:59;;;;;;;;;;;;;;;;;;4931539;29;20412;-86
2022/12/06 16:26:25;;;;;;;;;;;;;;;;;;4931992;29;19981;-88
2022/12/06 16:28:51;;;;;;;;;;;;;;;;;;4931642;29;20307;-89
2022/12/06 16:31:16;;;;;;;;;;;;;;;;;;4914468;29;19926;-87
2022/12/06 16:33:41;;;;;;;;;;;;;;;;;;4914346;29;19927;-90
2022/12/06 16:36:10;;;;;;;;;;;;;;;;;;4914102;29;19973;-86
2022/12/06 16:38:36;;;;;;;;;;;;;;;;;;4931894;29;19923;-86
2022/12/06 16:41:09;;;;;;;;;;;;;;;;;;4931277;29;19941;-88
2022/12/06 16:43:34;;;;;;;;;;;;;;;;;;4931511;29;20387;-87
2022/12/06 16:46:13;;;;;;;;;;;;;;;;;;4931412;29;19973;-88
2022/12/06 16:48:38;;;;;;;;;;;;;;;;;;4931432;29;20422;-86
2022/12/06 16:51:03;;;;;;;;;;;;;;;;;;4931451;29;20029;-87
2022/12/06 16:53:29;;;;;;;;;;;;;;;;;;4932109;29;19927;-86
2022/12/06 16:55:54;;;;;;;;;;;;;;;;;;4918321;29;19930;-86
2022/12/06 16:58:20;;;;;;;;;;;;;;;;;;4935662;29;19969;-88
2022/12/06 17:00:45;;;;;;;;;;;;;;;;;;4917856;29;20360;-85
2022/12/06 17:03:11;;;;;;;;;;;;;;;;;;4935388;29;19919;-86
2022/12/06 17:05:36;;;;;;;;;;;;;;;;;;4935279;29;20434;-87
2022/12/06 17:08:02;;;;;;;;;;;;;;;;;;4935281;29;19923;-88
2022/12/06 17:10:27;;;;;;;;;;;;;;;;;;4935414;29;20093;-86
2022/12/06 17:12:52;;;;;;;;;;;;;;;;;;4935621;29;20302;-89
2022/12/06 17:15:19;;;;;;;;;;;;;;;;;;4935221;29;20069;-85
2022/12/06 17:17:45;;;;;;;;;;;;;;;;;;4923605;29;20386;-90
2022/12/06 17:20:11;;;;;;;;;;;;;;;;;;4916040;29;19923;-86
2022/12/06 17:22:38;;;;;;;;;;;;;;;;;;4915622;29;19923;-87
2022/12/06 17:25:05;;;;;;;;;;;;;;;;;;4916280;29;19923;-86
2022/12/06 17:27:30;;;;;;;;;;;;;;;;;;4895850;29;20416;-85
2022/12/06 17:29:56;;;;;;;;;;;;;;;;;;4911804;29;19972;-86
2022/12/06 17:32:22;;;;;;;;;;;;;;;;;;4898945;29;20002;-88
2022/12/06 17:34:47;;;;;;;;;;;;;;;;;;4898764;29;19930;-89
2022/12/06 17:37:13;;;;;;;;;;;;;;;;;;4916829;29;20315;-88